Time;durP1;ratioP1;P1;durP2;ratioP2;P2;SDS_P1;SDS_P2;PMS_P1;PMS_P2;Temp;Humidity;BMP_temperature;BMP_pressure;BME280_temperature;BME280_humidity;BME280_pressure;Samples;Min_cycle;Max_cycle;Signal;HPM_P1;HPM_P2
2022/11/29 00:01:25;;;;;;;18.25;13.70;;;;;;;;;;4859194;29;20527;-66
2022/11/29 00:03:52;;;;;;;17.83;14.00;;;;;;;;;;4859877;29;20049;-66
2022/11/29 00:06:19;;;;;;;17.35;12.98;;;;;;;;;;4860220;29;20042;-66
2022/11/29 00:08:46;;;;;;;19.20;13.45;;;;;;;;;;4859901;29;20481;-66
2022/11/29 00:12:10;;;;;;;16.73;13.27;;;;;;;;;;4875101;29;20384;-66
2022/11/29 00:14:00;;;;;;;19.42;12.93;;;;;;;;;;4861759;29;20057;-66
2022/11/29 00:16:27;;;;;;;17.23;13.40;;;;;;;;;;4861556;29;20045;-66
2022/11/29 00:18:54;;;;;;;19.25;12.98;;;;;;;;;;4860093;29;20046;-66
2022/11/29 00:21:20;;;;;;;18.33;12.73;;;;;;;;;;4859883;29;20049;-66
2022/11/29 00:23:46;;;;;;;17.40;13.60;;;;;;;;;;4861889;29;20050;-66
2022/11/29 00:26:13;;;;;;;18.33;14.18;;;;;;;;;;4861444;29;20041;-66
2022/11/29 00:28:39;;;;;;;17.52;13.13;;;;;;;;;;4861825;29;20049;-66
2022/11/29 00:31:13;;;;;;;19.67;13.73;;;;;;;;;;4860702;29;20052;-67
2022/11/29 00:33:40;;;;;;;17.83;13.27;;;;;;;;;;4862338;29;20552;-66
2022/11/29 00:36:07;;;;;;;18.90;13.75;;;;;;;;;;4862803;29;20050;-66
2022/11/29 00:38:33;;;;;;;18.92;14.20;;;;;;;;;;4862952;29;20050;-66
2022/11/29 00:40:59;;;;;;;17.92;13.43;;;;;;;;;;4877847;29;20049;-66
2022/11/29 00:43:26;;;;;;;16.60;13.25;;;;;;;;;;4877973;29;20057;-66
2022/11/29 00:45:52;;;;;;;17.25;13.80;;;;;;;;;;4862648;29;20054;-66
2022/11/29 00:48:19;;;;;;;18.00;13.55;;;;;;;;;;4863641;29;20102;-66
2022/11/29 00:50:45;;;;;;;18.63;13.95;;;;;;;;;;4862100;29;20058;-65
2022/11/29 00:53:12;;;;;;;21.25;14.52;;;;;;;;;;4861102;29;20467;-65
2022/11/29 00:55:38;;;;;;;18.73;13.25;;;;;;;;;;4876254;29;20061;-65
2022/11/29 00:58:05;;;;;;;16.30;12.93;;;;;;;;;;4858774;29;20053;-66
2022/11/29 01:00:31;;;;;;;19.65;14.23;;;;;;;;;;4873744;29;20056;-65
2022/11/29 01:02:58;;;;;;;19.20;13.80;;;;;;;;;;4859611;29;20167;-65
2022/11/29 01:05:24;;;;;;;20.52;14.77;;;;;;;;;;4858732;29;20098;-65
2022/11/29 01:07:51;;;;;;;17.50;13.77;;;;;;;;;;4859694;29;20114;-65
2022/11/29 01:10:17;;;;;;;20.48;13.82;;;;;;;;;;4860509;29;20057;-66
2022/11/29 01:12:44;;;;;;;18.65;14.15;;;;;;;;;;4873716;29;20045;-65
2022/11/29 01:15:10;;;;;;;18.63;13.88;;;;;;;;;;4857681;29;20050;-65
2022/11/29 01:17:37;;;;;;;21.70;14.15;;;;;;;;;;4859265;29;20053;-65
2022/11/29 01:20:04;;;;;;;17.70;12.98;;;;;;;;;;4862923;29;20049;-66
2022/11/29 01:22:32;;;;;;;15.88;13.20;;;;;;;;;;4862961;29;20052;-65
2022/11/29 01:24:59;;;;;;;20.30;13.80;;;;;;;;;;4877255;29;20088;-65
2022/11/29 01:27:25;;;;;;;17.25;13.57;;;;;;;;;;4862670;29;20049;-65
2022/11/29 01:29:51;;;;;;;19.58;13.48;;;;;;;;;;4862763;29;20058;-65
2022/11/29 01:32:18;;;;;;;19.42;13.18;;;;;;;;;;4861390;29;20041;-65
2022/11/29 01:34:44;;;;;;;18.80;13.85;;;;;;;;;;4863846;29;20049;-65
2022/11/29 01:37:11;;;;;;;17.88;13.60;;;;;;;;;;4861436;29;20060;-65
2022/11/29 01:39:38;;;;;;;16.95;13.02;;;;;;;;;;4876816;29;20045;-65
2022/11/29 01:42:04;;;;;;;19.77;13.25;;;;;;;;;;4862494;29;20049;-65
2022/11/29 01:44:31;;;;;;;17.73;13.50;;;;;;;;;;4862683;29;20134;-65
2022/11/29 01:46:57;;;;;;;16.40;13.25;;;;;;;;;;4876415;29;20422;-66
2022/11/29 01:49:23;;;;;;;17.40;12.98;;;;;;;;;;4862600;29;20053;-66
2022/11/29 01:52:01;;;;;;;19.70;12.57;;;;;;;;;;4876598;29;20042;-65
2022/11/29 01:54:28;;;;;;;15.80;12.23;;;;;;;;;;4876770;29;20595;-65
2022/11/29 01:56:55;;;;;;;17.05;12.45;;;;;;;;;;4862004;29;20049;-65
2022/11/29 01:59:22;;;;;;;16.25;11.90;;;;;;;;;;4861012;29;20575;-65
2022/11/29 02:01:49;;;;;;;14.45;11.68;;;;;;;;;;4862198;29;20054;-65
2022/11/29 02:04:16;;;;;;;15.40;11.88;;;;;;;;;;4862326;29;20041;-65
2022/11/29 02:06:43;;;;;;;13.98;10.52;;;;;;;;;;4862001;29;20190;-65
2022/11/29 02:09:20;;;;;;;13.13;10.13;;;;;;;;;;4876253;29;20045;-65
2022/11/29 02:11:47;;;;;;;13.35;10.45;;;;;;;;;;4862180;29;20114;-65
2022/11/29 02:14:28;;;;;;;15.30;10.45;;;;;;;;;;4862080;29;20060;-66
2022/11/29 02:17:13;;;;;;;12.25;9.70;;;;;;;;;;4875948;29;20041;-64
2022/11/29 02:19:52;;;;;;;15.23;10.30;;;;;;;;;;4860784;29;20411;-65
2022/11/29 02:22:31;;;;;;;12.52;10.25;;;;;;;;;;4876082;29;20523;-65
2022/11/29 02:25:09;;;;;;;13.50;9.60;;;;;;;;;;4861748;29;20046;-65
2022/11/29 02:27:59;;;;;;;11.45;9.48;;;;;;;;;;4862014;29;20081;-65
2022/11/29 02:30:28;;;;;;;13.07;9.65;;;;;;;;;;4861810;29;20049;-64
2022/11/29 02:33:04;;;;;;;12.55;10.10;;;;;;;;;;4876089;29;20141;-64
2022/11/29 02:35:46;;;;;;;11.68;9.35;;;;;;;;;;4875639;29;20054;-64
2022/11/29 02:38:31;;;;;;;10.98;8.63;;;;;;;;;;4875919;29;20494;-65
2022/11/29 02:41:12;;;;;;;12.13;9.40;;;;;;;;;;4860630;29;20389;-65
2022/11/29 02:43:56;;;;;;;11.35;9.20;;;;;;;;;;4860601;29;20584;-65
2022/11/29 02:46:26;;;;;;;13.18;9.55;;;;;;;;;;4881587;29;20060;-65
2022/11/29 02:48:52;;;;;;;12.32;9.43;;;;;;;;;;4871853;29;20078;-64
2022/11/29 02:51:38;;;;;;;13.63;9.68;;;;;;;;;;4867428;29;20109;-65
2022/11/29 02:54:07;;;;;;;11.90;9.40;;;;;;;;;;4860427;29;20053;-65
2022/11/29 02:56:34;;;;;;;13.50;9.98;;;;;;;;;;4875500;29;20503;-65
2022/11/29 02:59:04;;;;;;;12.90;10.13;;;;;;;;;;4860117;29;20049;-65
2022/11/29 03:01:47;;;;;;;13.30;9.23;;;;;;;;;;4860275;29;20057;-66
2022/11/29 03:04:24;;;;;;;11.63;8.88;;;;;;;;;;4861580;29;20098;-65
2022/11/29 03:07:01;;;;;;;12.18;9.75;;;;;;;;;;4875455;29;20041;-66
2022/11/29 03:09:47;;;;;;;12.68;9.20;;;;;;;;;;4875735;29;20058;-66
2022/11/29 03:12:19;;;;;;;13.27;9.60;;;;;;;;;;4861343;29;20049;-66
2022/11/29 03:14:54;;;;;;;12.52;9.60;;;;;;;;;;4861053;29;20163;-65
2022/11/29 03:17:34;;;;;;;12.35;9.38;;;;;;;;;;4875207;29;20399;-65
2022/11/29 03:20:00;;;;;;;13.32;10.73;;;;;;;;;;4860147;29;20643;-65
2022/11/29 03:22:27;;;;;;;11.95;9.80;;;;;;;;;;4859757;29;20173;-65
2022/11/29 03:24:55;;;;;;;10.68;9.38;;;;;;;;;;4875119;29;20049;-65
2022/11/29 03:27:35;;;;;;;12.77;9.75;;;;;;;;;;4860658;29;20048;-65
2022/11/29 03:30:04;;;;;;;13.10;9.82;;;;;;;;;;4860858;29;20057;-65
2022/11/29 03:32:31;;;;;;;12.45;10.10;;;;;;;;;;4859665;29;20049;-65
2022/11/29 03:35:27;;;;;;;12.27;10.05;;;;;;;;;;4860565;29;20080;-65
2022/11/29 03:37:54;;;;;;;13.30;10.15;;;;;;;;;;4843948;29;20877;-65
2022/11/29 03:40:25;;;;;;;13.60;10.45;;;;;;;;;;4874741;29;20046;-65
2022/11/29 03:43:00;;;;;;;12.10;9.48;;;;;;;;;;4858962;29;20567;-65
2022/11/29 03:45:42;;;;;;;15.90;9.82;;;;;;;;;;4874386;29;20041;-65
2022/11/29 03:48:13;;;;;;;13.40;10.55;;;;;;;;;;4860407;29;20053;-66
2022/11/29 03:50:42;;;;;;;13.60;10.77;;;;;;;;;;4874659;29;20053;-66
2022/11/29 03:53:18;;;;;;;16.33;10.27;;;;;;;;;;4860292;29;20053;-66
2022/11/29 03:55:47;;;;;;;11.52;9.20;;;;;;;;;;4860619;29;20411;-66
2022/11/29 03:58:20;;;;;;;12.48;9.63;;;;;;;;;;4860469;29;20053;-66
2022/11/29 04:00:46;;;;;;;11.70;9.52;;;;;;;;;;4859564;29;20041;-66
2022/11/29 04:03:37;;;;;;;12.38;9.35;;;;;;;;;;4860686;29;20042;-66
2022/11/29 04:06:17;;;;;;;12.95;9.45;;;;;;;;;;4860363;29;20041;-66
2022/11/29 04:09:06;;;;;;;11.55;8.93;;;;;;;;;;4875054;29;20049;-65
2022/11/29 04:11:58;;;;;;;11.30;9.10;;;;;;;;;;4860750;29;20096;-65
2022/11/29 04:14:31;;;;;;;12.27;9.27;;;;;;;;;;4860634;29;20056;-65
2022/11/29 04:17:12;;;;;;;12.48;9.75;;;;;;;;;;4860068;29;20054;-66
2022/11/29 04:19:45;;;;;;;11.35;9.23;;;;;;;;;;4874723;29;20066;-66
2022/11/29 04:22:30;;;;;;;13.45;9.80;;;;;;;;;;4860539;29;20042;-66
2022/11/29 04:25:15;;;;;;;12.23;9.20;;;;;;;;;;4860251;29;20045;-66
2022/11/29 04:28:00;;;;;;;11.73;9.10;;;;;;;;;;4874546;29;20053;-66
2022/11/29 04:30:29;;;;;;;11.95;9.13;;;;;;;;;;4876022;29;20046;-66
2022/11/29 04:33:02;;;;;;;12.70;9.23;;;;;;;;;;4875442;29;20115;-65
2022/11/29 04:35:37;;;;;;;12.70;9.93;;;;;;;;;;4875394;29;20057;-65
2022/11/29 04:38:04;;;;;;;12.48;9.88;;;;;;;;;;4859132;29;20054;-65
2022/11/29 04:40:39;;;;;;;11.90;9.25;;;;;;;;;;4874605;29;20094;-68
2022/11/29 04:43:24;;;;;;;14.93;10.02;;;;;;;;;;4874313;29;20058;-65
2022/11/29 04:46:06;;;;;;;12.77;10.25;;;;;;;;;;4874126;29;20388;-65
2022/11/29 04:48:39;;;;;;;13.68;9.95;;;;;;;;;;4874323;29;20048;-65
2022/11/29 04:51:24;;;;;;;12.93;9.52;;;;;;;;;;4860290;29;20411;-65
2022/11/29 04:54:08;;;;;;;11.35;9.00;;;;;;;;;;4857899;29;20060;-65
2022/11/29 04:56:43;;;;;;;13.82;10.07;;;;;;;;;;4859570;29;20046;-67
2022/11/29 04:59:28;;;;;;;13.98;10.43;;;;;;;;;;4874386;29;20050;-66
2022/11/29 05:02:13;;;;;;;13.15;10.00;;;;;;;;;;5294332;23;20057;-63
2022/11/29 05:04:39;;;;;;;12.50;9.82;;;;;;;;;;4878691;29;20062;-62
2022/11/29 05:07:10;;;;;;;13.45;9.57;;;;;;;;;;4877076;29;20056;-62
2022/11/29 05:09:45;;;;;;;12.40;9.57;;;;;;;;;;4878757;29;20052;-63
2022/11/29 05:12:31;;;;;;;12.75;10.07;;;;;;;;;;4878872;29;20045;-63
2022/11/29 05:15:09;;;;;;;12.73;9.95;;;;;;;;;;4877354;29;20052;-62
2022/11/29 05:17:39;;;;;;;12.20;9.25;;;;;;;;;;4877123;29;20052;-63
2022/11/29 05:20:21;;;;;;;11.77;9.57;;;;;;;;;;4892451;29;20053;-63
2022/11/29 05:22:48;;;;;;;13.50;8.93;;;;;;;;;;4878243;29;20517;-63
2022/11/29 05:25:33;;;;;;;11.77;10.05;;;;;;;;;;4877448;29;20100;-64
2022/11/29 05:28:15;;;;;;;12.18;9.98;;;;;;;;;;4878281;29;20414;-64
2022/11/29 05:30:44;;;;;;;13.27;9.77;;;;;;;;;;4876949;29;20053;-64
2022/11/29 05:33:27;;;;;;;14.77;10.13;;;;;;;;;;4878041;29;20049;-64
2022/11/29 05:36:14;;;;;;;16.00;10.73;;;;;;;;;;4891833;29;20085;-64
2022/11/29 05:38:52;;;;;;;16.20;12.25;;;;;;;;;;4877762;29;20061;-65
2022/11/29 05:41:47;;;;;;;17.35;11.57;;;;;;;;;;4877902;29;20051;-64
2022/11/29 05:44:32;;;;;;;13.40;10.00;;;;;;;;;;4843653;29;20535;-64
2022/11/29 05:47:00;;;;;;;14.98;10.77;;;;;;;;;;4877311;29;20041;-64
2022/11/29 05:49:26;;;;;;;14.10;10.65;;;;;;;;;;4878061;29;20048;-63
2022/11/29 05:52:16;;;;;;;15.23;10.82;;;;;;;;;;4892219;29;20118;-63
2022/11/29 05:54:47;;;;;;;15.23;9.40;;;;;;;;;;4872926;29;20514;-63
2022/11/29 05:57:13;;;;;;;13.30;9.95;;;;;;;;;;4878125;29;20113;-63
2022/11/29 05:59:41;;;;;;;13.60;10.02;;;;;;;;;;4878584;29;20049;-64
2022/11/29 06:02:19;;;;;;;12.70;9.93;;;;;;;;;;4876875;29;20100;-65
2022/11/29 06:05:02;;;;;;;13.05;9.38;;;;;;;;;;4878190;29;20048;-65
2022/11/29 06:07:37;;;;;;;11.73;9.48;;;;;;;;;;4881301;29;20045;-64
2022/11/29 06:10:05;;;;;;;13.20;9.88;;;;;;;;;;4881270;29;20064;-64
2022/11/29 06:12:34;;;;;;;11.27;8.88;;;;;;;;;;4881174;29;20041;-64
2022/11/29 06:15:11;;;;;;;15.98;10.27;;;;;;;;;;4895092;29;20041;-64
2022/11/29 06:18:00;;;;;;;17.88;11.13;;;;;;;;;;4881120;29;20045;-64
2022/11/29 06:20:37;;;;;;;14.07;10.23;;;;;;;;;;4880943;29;20037;-64
2022/11/29 06:23:19;;;;;;;14.63;10.88;;;;;;;;;;4881072;29;20045;-64
2022/11/29 06:25:46;;;;;;;16.02;11.80;;;;;;;;;;4879337;29;20048;-65
2022/11/29 06:28:24;;;;;;;13.98;10.27;;;;;;;;;;4895271;29;20049;-65
2022/11/29 06:30:54;;;;;;;14.88;10.98;;;;;;;;;;4880990;29;20146;-64
2022/11/29 06:33:36;;;;;;;16.63;12.05;;;;;;;;;;4880598;29;20048;-65
2022/11/29 06:36:10;;;;;;;14.80;10.68;;;;;;;;;;4894570;29;20045;-64
2022/11/29 06:38:36;;;;;;;14.20;10.38;;;;;;;;;;4881144;29;20555;-64
2022/11/29 06:41:03;;;;;;;15.20;10.23;;;;;;;;;;4880649;29;20100;-64
2022/11/29 06:43:30;;;;;;;12.50;9.65;;;;;;;;;;4879411;29;20049;-64
2022/11/29 06:46:04;;;;;;;15.50;9.50;;;;;;;;;;4878893;29;20033;-64
2022/11/29 06:48:37;;;;;;;15.27;10.65;;;;;;;;;;4880570;29;20037;-64
2022/11/29 06:51:18;;;;;;;14.15;10.15;;;;;;;;;;4895256;29;20060;-64
2022/11/29 06:53:57;;;;;;;13.30;10.55;;;;;;;;;;4880689;29;20049;-63
2022/11/29 06:56:42;;;;;;;15.48;11.63;;;;;;;;;;4880040;29;20053;-62
2022/11/29 06:59:11;;;;;;;14.82;11.32;;;;;;;;;;4880589;29;20108;-63
2022/11/29 07:01:40;;;;;;;13.60;10.45;;;;;;;;;;4880108;29;20045;-62
2022/11/29 07:04:13;;;;;;;12.27;10.18;;;;;;;;;;4879373;29;20064;-62
2022/11/29 07:06:40;;;;;;;13.07;9.77;;;;;;;;;;4894957;29;20073;-62
2022/11/29 07:09:27;;;;;;;14.95;10.80;;;;;;;;;;4882331;29;20049;-62
2022/11/29 07:11:54;;;;;;;12.45;10.65;;;;;;;;;;4880414;29;20056;-62
2022/11/29 07:14:20;;;;;;;14.60;10.43;;;;;;;;;;4895267;29;20104;-62
2022/11/29 07:17:07;;;;;;;15.65;12.35;;;;;;;;;;4880327;29;20108;-62
2022/11/29 07:19:37;;;;;;;18.17;11.98;;;;;;;;;;4883513;29;20045;-63
2022/11/29 07:22:03;;;;;;;14.52;10.75;;;;;;;;;;4885127;29;20045;-62
2022/11/29 07:24:39;;;;;;;15.00;11.23;;;;;;;;;;4883533;29;20096;-63
2022/11/29 07:27:11;;;;;;;15.40;10.80;;;;;;;;;;4882228;29;20037;-63
2022/11/29 07:29:46;;;;;;;19.17;13.00;;;;;;;;;;4883300;29;20053;-63
2022/11/29 07:32:12;;;;;;;17.05;10.90;;;;;;;;;;4881006;29;20498;-63
2022/11/29 07:34:41;;;;;;;16.33;10.82;;;;;;;;;;4880847;29;20506;-63
2022/11/29 07:37:13;;;;;;;14.07;11.20;;;;;;;;;;4878448;29;20558;-63
2022/11/29 07:39:43;;;;;;;15.23;10.98;;;;;;;;;;4894232;29;20494;-63
2022/11/29 07:42:25;;;;;;;17.38;11.20;;;;;;;;;;4879596;29;20057;-63
2022/11/29 07:44:51;;;;;;;12.98;10.63;;;;;;;;;;4879527;29;20045;-63
2022/11/29 07:47:18;;;;;;;13.90;10.90;;;;;;;;;;4878079;29;20093;-64
2022/11/29 07:49:44;;;;;;;14.40;11.20;;;;;;;;;;4879627;29;20093;-64
2022/11/29 07:52:11;;;;;;;16.05;11.85;;;;;;;;;;4879373;29;20060;-64
2022/11/29 07:54:38;;;;;;;15.00;11.02;;;;;;;;;;4879880;29;20047;-63
2022/11/29 07:57:05;;;;;;;17.23;11.13;;;;;;;;;;4879369;29;20077;-63
2022/11/29 07:59:31;;;;;;;19.60;11.63;;;;;;;;;;4893628;29;20053;-62
2022/11/29 08:01:58;;;;;;;15.07;11.70;;;;;;;;;;4894133;29;20045;-62
2022/11/29 08:04:24;;;;;;;21.55;11.70;;;;;;;;;;4894932;29;20114;-62
2022/11/29 08:06:59;;;;;;;18.02;11.85;;;;;;;;;;4893109;29;20049;-65
2022/11/29 08:09:25;;;;;;;15.18;10.70;;;;;;;;;;4878005;29;20052;-66
2022/11/29 08:11:52;;;;;;;12.77;10.15;;;;;;;;;;4878030;29;20108;-63
2022/11/29 08:14:18;;;;;;;14.90;11.55;;;;;;;;;;4878252;29;20490;-63
2022/11/29 08:16:45;;;;;;;15.80;11.13;;;;;;;;;;4878814;29;20057;-63
2022/11/29 08:19:11;;;;;;;17.70;11.57;;;;;;;;;;4893205;29;20516;-65
2022/11/29 08:21:37;;;;;;;17.38;11.50;;;;;;;;;;4878809;29;20105;-65
2022/11/29 08:24:04;;;;;;;13.57;10.43;;;;;;;;;;4893300;29;20570;-65
2022/11/29 08:26:30;;;;;;;13.88;10.93;;;;;;;;;;4892719;29;20494;-65
2022/11/29 08:28:57;;;;;;;14.73;10.80;;;;;;;;;;4878762;29;20037;-66
2022/11/29 08:31:23;;;;;;;15.30;12.05;;;;;;;;;;4878912;29;20533;-65
2022/11/29 08:33:50;;;;;;;16.60;10.82;;;;;;;;;;4879012;29;20053;-65
2022/11/29 08:36:18;;;;;;;16.83;11.88;;;;;;;;;;4877071;29;20047;-65
2022/11/29 08:38:45;;;;;;;13.15;10.48;;;;;;;;;;4877788;29;20494;-65
2022/11/29 08:41:12;;;;;;;13.43;10.35;;;;;;;;;;4878597;29;20037;-65
2022/11/29 08:43:39;;;;;;;13.20;10.30;;;;;;;;;;4893083;29;20041;-65
2022/11/29 08:46:06;;;;;;;14.50;9.60;;;;;;;;;;4878054;29;20498;-64
2022/11/29 08:48:34;;;;;;;15.10;10.20;;;;;;;;;;4877329;29;20061;-65
2022/11/29 08:51:00;;;;;;;14.63;10.10;;;;;;;;;;4878608;29;20097;-65
2022/11/29 08:53:43;;;;;;;15.27;11.15;;;;;;;;;;4878408;29;20125;-65
2022/11/29 08:56:10;;;;;;;15.73;11.23;;;;;;;;;;4861615;29;20509;-65
2022/11/29 08:58:57;;;;;;;14.60;10.73;;;;;;;;;;4890409;29;20059;-65
2022/11/29 09:01:24;;;;;;;16.13;10.80;;;;;;;;;;4877345;29;20482;-64
2022/11/29 09:04:01;;;;;;;13.48;10.18;;;;;;;;;;4892815;29;20045;-64
2022/11/29 09:06:29;;;;;;;14.35;10.52;;;;;;;;;;4877927;29;20049;-65
2022/11/29 09:08:56;;;;;;;20.75;14.43;;;;;;;;;;4878447;29;20088;-65
2022/11/29 09:11:24;;;;;;;12.55;10.15;;;;;;;;;;4878227;29;20045;-65
2022/11/29 09:13:52;;;;;;;12.82;9.85;;;;;;;;;;4878222;29;20049;-63
2022/11/29 09:16:20;;;;;;;12.93;9.18;;;;;;;;;;4877666;29;20068;-65
2022/11/29 09:18:49;;;;;;;12.20;9.35;;;;;;;;;;4892649;29;20072;-67
2022/11/29 09:21:17;;;;;;;13.77;8.95;;;;;;;;;;4877059;29;20052;-65
2022/11/29 09:23:44;;;;;;;13.27;9.45;;;;;;;;;;4878189;29;20041;-65
2022/11/29 09:26:15;;;;;;;15.70;9.02;;;;;;;;;;4877895;29;20085;-65
2022/11/29 09:28:41;;;;;;;15.50;11.20;;;;;;;;;;4878362;29;20033;-65
2022/11/29 09:31:09;;;;;;;13.75;9.27;;;;;;;;;;4878648;29;20104;-65
2022/11/29 09:33:35;;;;;;;15.55;9.45;;;;;;;;;;4877216;29;20053;-65
2022/11/29 09:36:02;;;;;;;18.45;9.70;;;;;;;;;;4877736;29;20053;-65
2022/11/29 09:38:28;;;;;;;14.60;9.95;;;;;;;;;;4878206;29;20140;-65
2022/11/29 09:40:56;;;;;;;13.13;9.02;;;;;;;;;;4880337;29;20057;-65
2022/11/29 09:43:26;;;;;;;11.95;8.82;;;;;;;;;;4881735;29;20045;-65
2022/11/29 09:45:58;;;;;;;16.35;9.35;;;;;;;;;;4881290;29;20093;-65
2022/11/29 09:48:24;;;;;;;18.20;12.10;;;;;;;;;;4881720;29;20051;-65
2022/11/29 09:50:55;;;;;;;15.80;10.27;;;;;;;;;;4880494;29;20418;-65
2022/11/29 09:53:34;;;;;;;13.93;9.27;;;;;;;;;;4881527;29;20045;-63
2022/11/29 09:56:04;;;;;;;11.30;8.80;;;;;;;;;;4879704;29;20100;-64
2022/11/29 09:58:35;;;;;;;14.95;8.75;;;;;;;;;;4881439;29;20048;-65
2022/11/29 10:01:05;;;;;;;15.52;9.43;;;;;;;;;;4881386;29;20375;-63
2022/11/29 10:03:35;;;;;;;15.68;9.23;;;;;;;;;;4879970;29;20041;-65
2022/11/29 10:06:06;;;;;;;17.23;9.68;;;;;;;;;;4880813;29;20053;-66
2022/11/29 10:08:35;;;;;;;12.93;9.50;;;;;;;;;;4881569;29;20053;-64
2022/11/29 10:11:21;;;;;;;17.25;9.77;;;;;;;;;;4881180;29;20049;-65
2022/11/29 10:13:50;;;;;;;16.02;9.52;;;;;;;;;;4881091;29;20048;-65
2022/11/29 10:16:22;;;;;;;17.33;9.30;;;;;;;;;;4879395;29;20049;-65
2022/11/29 10:18:53;;;;;;;17.73;10.00;;;;;;;;;;4896168;29;20391;-65
2022/11/29 10:21:21;;;;;;;13.35;9.27;;;;;;;;;;4895660;29;20059;-65
2022/11/29 10:23:51;;;;;;;14.75;10.25;;;;;;;;;;4895504;29;20037;-66
2022/11/29 10:26:19;;;;;;;13.88;9.23;;;;;;;;;;4879079;29;20057;-66
2022/11/29 10:28:47;;;;;;;14.90;9.65;;;;;;;;;;4881123;29;20048;-66
2022/11/29 10:31:21;;;;;;;15.23;8.98;;;;;;;;;;4881065;29;20045;-66
2022/11/29 10:33:47;;;;;;;;;;;;;;;;;;4880126;29;20506;-66
2022/11/29 10:36:15;;;;;;;14.07;9.40;;;;;;;;;;4880310;29;20399;-66
2022/11/29 10:38:43;;;;;;;12.20;9.27;;;;;;;;;;4881027;29;20513;-66
2022/11/29 10:41:12;;;;;;;15.68;9.30;;;;;;;;;;4879453;29;20049;-65
2022/11/29 10:43:39;;;;;;;15.57;9.73;;;;;;;;;;4879535;29;20041;-65
2022/11/29 10:46:11;;;;;;;16.00;8.82;;;;;;;;;;4880092;29;20040;-65
2022/11/29 10:48:37;;;;;;;16.23;9.23;;;;;;;;;;4879474;29;20104;-65
2022/11/29 10:51:11;;;;;;;15.77;9.63;;;;;;;;;;4880855;29;20409;-66
2022/11/29 10:53:37;;;;;;;17.02;8.55;;;;;;;;;;4880611;29;20052;-66
2022/11/29 10:56:22;;;;;;;12.25;7.70;;;;;;;;;;4878783;29;20037;-66
2022/11/29 10:59:04;;;;;;;18.00;8.15;;;;;;;;;;4880603;29;20545;-66
2022/11/29 11:01:32;;;;;;;17.10;8.68;;;;;;;;;;4880233;29;20041;-66
2022/11/29 11:03:59;;;;;;;11.65;7.93;;;;;;;;;;4879209;29;20053;-66
2022/11/29 11:06:26;;;;;;;17.17;8.30;;;;;;;;;;4878587;29;20053;-65
2022/11/29 11:08:54;;;;;;;17.92;9.02;;;;;;;;;;4879127;29;20045;-66
2022/11/29 11:11:25;;;;;;;17.33;9.45;;;;;;;;;;4880249;29;20113;-66
2022/11/29 11:13:59;;;;;;;16.15;9.00;;;;;;;;;;4880313;29;20049;-66
2022/11/29 11:16:26;;;;;;;19.95;9.10;;;;;;;;;;4893875;29;20053;-65
2022/11/29 11:18:52;;;;;;;24.38;9.93;;;;;;;;;;4880238;29;20045;-66
2022/11/29 11:21:20;;;;;;;18.25;8.65;;;;;;;;;;4880068;29;20044;-66
2022/11/29 11:23:52;;;;;;;19.55;8.98;;;;;;;;;;4879944;29;20037;-66
2022/11/29 11:26:19;;;;;;;17.52;9.80;;;;;;;;;;4879386;29;20416;-66
2022/11/29 11:28:45;;;;;;;19.20;10.32;;;;;;;;;;4879837;29;20056;-64
2022/11/29 11:31:12;;;;;;;17.33;9.63;;;;;;;;;;4880059;29;20047;-64
2022/11/29 11:33:38;;;;;;;13.45;8.20;;;;;;;;;;4880181;29;20517;-64
2022/11/29 11:36:05;;;;;;;15.63;8.30;;;;;;;;;;4893484;29;20108;-65
2022/11/29 11:38:32;;;;;;;17.63;8.50;;;;;;;;;;4879779;29;20130;-64
2022/11/29 11:41:19;;;;;;;16.15;8.93;;;;;;;;;;4879462;29;20049;-64
2022/11/29 11:43:57;;;;;;;15.52;8.73;;;;;;;;;;4879490;29;20061;-64
2022/11/29 11:46:43;;;;;;;15.40;8.45;;;;;;;;;;4878940;29;20045;-63
2022/11/29 11:49:11;;;;;;;15.90;8.70;;;;;;;;;;4879807;29;20060;-63
2022/11/29 11:51:39;;;;;;;18.15;9.48;;;;;;;;;;4879826;29;20109;-65
2022/11/29 11:54:12;;;;;;;18.73;9.40;;;;;;;;;;4879624;29;20455;-64
2022/11/29 11:56:38;;;;;;;19.10;9.45;;;;;;;;;;4879045;29;20048;-64
2022/11/29 11:59:05;;;;;;;16.45;9.20;;;;;;;;;;4878233;29;20459;-64
2022/11/29 12:01:37;;;;;;;16.67;9.68;;;;;;;;;;4878808;29;20409;-64
2022/11/29 12:04:13;;;;;;;15.90;8.88;;;;;;;;;;4879722;29;20558;-64
2022/11/29 12:06:46;;;;;;;20.63;9.57;;;;;;;;;;4878783;29;20447;-64
2022/11/29 12:09:34;;;;;;;18.20;10.60;;;;;;;;;;4893596;29;20049;-64
2022/11/29 12:12:19;;;;;;;22.50;9.98;;;;;;;;;;4879381;29;20056;-63
2022/11/29 12:14:55;;;;;;;15.10;10.32;;;;;;;;;;4879148;29;20521;-64
2022/11/29 12:17:27;;;;;;;19.45;11.00;;;;;;;;;;4878470;29;20089;-64
2022/11/29 12:19:58;;;;;;;23.48;11.02;;;;;;;;;;4893441;29;20590;-63
2022/11/29 12:22:29;;;;;;;16.10;9.68;;;;;;;;;;4878782;29;20100;-64
2022/11/29 12:24:58;;;;;;;22.20;12.25;;;;;;;;;;4877302;29;20109;-66
2022/11/29 12:27:25;;;;;;;18.67;9.70;;;;;;;;;;4878858;29;20101;-64
2022/11/29 12:29:51;;;;;;;14.60;9.15;;;;;;;;;;4877948;29;20049;-63
2022/11/29 12:32:30;;;;;;;18.92;9.80;;;;;;;;;;4877690;29;20092;-64
2022/11/29 12:35:15;;;;;;;17.77;9.55;;;;;;;;;;4878679;29;20503;-63
2022/11/29 12:38:04;;;;;;;20.35;11.00;;;;;;;;;;4877683;29;20658;-64
2022/11/29 12:40:42;;;;;;;19.35;9.77;;;;;;;;;;4878862;29;20068;-64
2022/11/29 12:43:17;;;;;;;14.32;9.52;;;;;;;;;;4878721;29;20044;-64
2022/11/29 12:45:47;;;;;;;17.58;9.55;;;;;;;;;;4892566;29;20049;-64
2022/11/29 12:48:24;;;;;;;16.45;9.75;;;;;;;;;;4878903;29;20061;-65
2022/11/29 12:50:57;;;;;;;22.75;10.45;;;;;;;;;;4877467;29;20522;-65
2022/11/29 12:53:29;;;;;;;19.92;10.02;;;;;;;;;;4878473;29;20045;-64
2022/11/29 12:55:58;;;;;;;20.00;10.27;;;;;;;;;;4878011;29;20108;-65
2022/11/29 12:58:30;;;;;;;18.85;10.85;;;;;;;;;;4892734;29;20059;-65
2022/11/29 13:01:05;;;;;;;23.00;9.70;;;;;;;;;;4878557;29;20093;-65
2022/11/29 13:03:34;;;;;;;18.05;10.38;;;;;;;;;;4878426;29;20101;-63
2022/11/29 13:06:01;;;;;;;19.02;11.63;;;;;;;;;;4877968;29;20078;-64
2022/11/29 13:08:40;;;;;;;15.75;9.48;;;;;;;;;;4878586;29;20045;-64
2022/11/29 13:11:18;;;;;;;20.42;11.00;;;;;;;;;;4878643;29;20049;-64
2022/11/29 13:13:56;;;;;;;20.15;10.32;;;;;;;;;;4877113;29;20060;-64
2022/11/29 13:16:53;;;;;;;22.13;10.60;;;;;;;;;;4878693;29;20041;-64
2022/11/29 13:19:19;;;;;;;19.45;10.38;;;;;;;;;;4878529;29;20048;-62
2022/11/29 13:21:57;;;;;;;19.83;10.88;;;;;;;;;;4877225;29;20053;-66
2022/11/29 13:24:27;;;;;;;22.02;11.27;;;;;;;;;;4878479;29;20466;-63
2022/11/29 13:26:54;;;;;;;22.00;11.73;;;;;;;;;;4876586;29;20518;-64
2022/11/29 13:29:20;;;;;;;23.55;10.38;;;;;;;;;;4878608;29;20041;-63
2022/11/29 13:31:47;;;;;;;22.00;11.05;;;;;;;;;;4878260;29;20045;-63
2022/11/29 13:34:40;;;;;;;18.52;11.25;;;;;;;;;;4878562;29;20037;-63
2022/11/29 13:37:14;;;;;;;22.90;11.80;;;;;;;;;;4876020;29;20053;-64
2022/11/29 13:39:40;;;;;;;;;;;;;;;;;;4878765;29;20056;-64
2022/11/29 13:42:27;;;;;;;20.90;11.55;;;;;;;;;;4877934;29;19930;-64
2022/11/29 13:45:12;;;;;;;21.30;12.93;;;;;;;;;;4892287;29;20057;-64
2022/11/29 13:47:48;;;;;;;20.02;11.85;;;;;;;;;;4892689;29;20702;-64
2022/11/29 13:50:35;;;;;;;22.77;11.82;;;;;;;;;;4878263;29;20100;-63
2022/11/29 13:53:10;;;;;;;26.25;12.65;;;;;;;;;;4878306;29;20049;-63
2022/11/29 13:55:42;;;;;;;22.83;12.85;;;;;;;;;;4877859;29;20041;-64
2022/11/29 13:58:15;;;;;;;25.35;12.10;;;;;;;;;;4879371;29;20081;-64
2022/11/29 14:00:43;;;;;;;23.50;12.48;;;;;;;;;;4879822;29;20144;-63
2022/11/29 14:03:21;;;;;;;21.52;12.40;;;;;;;;;;4880372;29;20045;-63
2022/11/29 14:05:53;;;;;;;28.73;12.25;;;;;;;;;;4878586;29;20414;-63
2022/11/29 14:08:22;;;;;;;22.05;13.18;;;;;;;;;;4880063;29;20052;-63
2022/11/29 14:10:49;;;;;;;20.90;12.05;;;;;;;;;;4880019;29;20052;-63
2022/11/29 14:13:16;;;;;;;23.52;12.25;;;;;;;;;;4880536;29;20049;-63
2022/11/29 14:15:42;;;;;;;33.67;13.88;;;;;;;;;;4879818;29;20049;-64
2022/11/29 14:18:28;;;;;;;23.20;12.48;;;;;;;;;;4894131;29;20083;-64
2022/11/29 14:20:56;;;;;;;21.42;11.50;;;;;;;;;;4879056;29;20049;-64
2022/11/29 14:23:31;;;;;;;22.95;12.57;;;;;;;;;;4878734;29;20488;-64
2022/11/29 14:25:57;;;;;;;22.75;11.43;;;;;;;;;;4878091;29;20049;-64
2022/11/29 14:28:39;;;;;;;20.02;11.10;;;;;;;;;;4881386;29;20129;-64
2022/11/29 14:31:06;;;;;;;17.48;10.13;;;;;;;;;;4881132;29;20053;-63
2022/11/29 14:33:51;;;;;;;20.40;11.48;;;;;;;;;;4895162;29;20533;-64
2022/11/29 14:36:27;;;;;;;17.80;10.30;;;;;;;;;;4880549;29;20517;-66
2022/11/29 14:38:56;;;;;;;20.10;10.55;;;;;;;;;;4881383;29;20049;-65
2022/11/29 14:41:41;;;;;;;19.27;9.93;;;;;;;;;;4879678;29;20463;-65
2022/11/29 14:44:16;;;;;;;21.95;11.20;;;;;;;;;;4895365;29;20048;-65
2022/11/29 14:46:44;;;;;;;16.60;10.35;;;;;;;;;;4880110;29;20041;-65
2022/11/29 14:49:20;;;;;;;22.08;10.93;;;;;;;;;;4880980;29;20045;-65
2022/11/29 14:52:05;;;;;;;23.02;11.02;;;;;;;;;;4880788;29;20044;-66
2022/11/29 14:54:32;;;;;;;20.20;10.38;;;;;;;;;;4895143;29;20048;-65